createdAt,value
2017-01-30T00:00:32.397Z,22.57
2017-01-30T00:01:32.501Z,22.61
2017-01-30T00:02:32.413Z,22.61
2017-01-30T00:03:32.418Z,22.6
2017-01-30T00:04:32.417Z,22.61
2017-01-30T00:05:32.430Z,22.57
2017-01-30T00:06:32.482Z,22.6
2017-01-30T00:07:32.142Z,22.61
2017-01-30T00:08:32.450Z,22.57
2017-01-30T00:09:32.104Z,22.62
2017-01-30T00:10:32.455Z,22.55
2017-01-30T00:11:31.672Z,22.54
2017-01-30T00:12:32.519Z,22.52
2017-01-30T00:13:32.486Z,22.46
2017-01-30T00:14:32.533Z,22.52
2017-01-30T00:15:32.487Z,22.54
2017-01-30T00:16:32.543Z,22.47
2017-01-30T00:17:32.107Z,22.47
2017-01-30T00:18:32.111Z,22.51
2017-01-30T00:19:32.508Z,22.49
2017-01-30T00:20:32.566Z,22.49
2017-01-30T00:21:32.523Z,22.52
2017-01-30T00:22:32.599Z,22.47
2017-01-30T00:23:32.530Z,22.52
2017-01-30T00:24:32.540Z,22.51
2017-01-30T00:25:32.541Z,22.47
2017-01-30T00:26:32.549Z,22.54
2017-01-30T00:27:32.603Z,22.57
2017-01-30T00:28:32.667Z,22.47
2017-01-30T00:29:32.667Z,22.49
2017-01-30T00:30:32.632Z,22.55
2017-01-30T00:31:32.581Z,22.46
2017-01-30T00:32:32.637Z,22.57
2017-01-30T00:33:32.245Z,22.45
2017-01-30T00:34:32.593Z,22.47
2017-01-30T00:35:32.654Z,22.43
2017-01-30T00:36:32.705Z,22.49
2017-01-30T00:37:32.633Z,22.47
2017-01-30T00:38:32.719Z,22.47
2017-01-30T00:39:32.302Z,22.47
2017-01-30T00:40:32.680Z,22.45
2017-01-30T00:41:32.294Z,22.46
2017-01-30T00:42:32.645Z,22.43
2017-01-30T00:43:32.252Z,22.45
2017-01-30T00:44:32.705Z,22.54
2017-01-30T00:45:32.690Z,22.46
2017-01-30T00:46:32.668Z,22.47
2017-01-30T00:47:32.724Z,22.46
2017-01-30T00:48:32.734Z,22.49
2017-01-30T00:49:32.685Z,22.46
2017-01-30T00:50:32.763Z,22.49
2017-01-30T00:51:32.693Z,22.45
2017-01-30T00:52:32.750Z,22.47
2017-01-30T00:53:32.757Z,22.46
2017-01-30T00:54:32.715Z,22.43
2017-01-30T00:55:32.771Z,22.45
2017-01-30T00:56:32.330Z,22.49
2017-01-30T00:57:32.728Z,22.46
2017-01-30T00:58:32.786Z,22.57
2017-01-30T00:59:32.747Z,22.52
2017-01-30T01:00:32.360Z,22.51
2017-01-30T01:01:32.756Z,22.49
2017-01-30T01:02:32.757Z,22.49
2017-01-30T01:03:32.822Z,22.49
2017-01-30T01:04:32.841Z,22.54
2017-01-30T01:05:32.777Z,22.54
2017-01-30T01:06:32.832Z,22.62
2017-01-30T01:07:32.839Z,22.51
2017-01-30T01:08:32.799Z,22.49
2017-01-30T01:09:32.849Z,22.55
2017-01-30T01:10:32.805Z,22.47
2017-01-30T01:11:32.865Z,22.45
2017-01-30T01:12:32.873Z,22.55
2017-01-30T01:13:32.876Z,22.46
2017-01-30T01:14:32.829Z,22.49
2017-01-30T01:15:32.864Z,22.46
2017-01-30T01:16:32.496Z,22.39
2017-01-30T01:17:32.878Z,22.4
2017-01-30T01:18:33.005Z,22.52
2017-01-30T01:19:32.857Z,22.52
2017-01-30T01:20:32.469Z,22.47
2017-01-30T01:21:32.933Z,22.46
2017-01-30T01:22:32.875Z,22.47
2017-01-30T01:23:32.930Z,22.49
2017-01-30T01:24:32.949Z,22.46
2017-01-30T01:25:32.624Z,22.57
2017-01-30T01:26:32.953Z,22.47
2017-01-30T01:27:32.957Z,22.46
2017-01-30T01:28:32.567Z,22.55
2017-01-30T01:29:32.965Z,22.45
2017-01-30T01:30:32.921Z,22.4
2017-01-30T01:31:32.925Z,22.49
2017-01-30T01:32:32.982Z,22.51
2017-01-30T01:33:32.940Z,22.51
2017-01-30T01:34:33.002Z,22.49
2017-01-30T01:35:32.950Z,22.52
2017-01-30T01:36:33.013Z,22.49
2017-01-30T01:37:33.020Z,22.51
2017-01-30T01:38:33.026Z,22.51
2017-01-30T01:39:33.040Z,22.47
2017-01-30T01:40:33.034Z,22.54
2017-01-30T01:41:33.040Z,22.47
2017-01-30T01:42:33.042Z,22.51
2017-01-30T01:43:32.999Z,22.57
2017-01-30T01:44:33.056Z,22.52
2017-01-30T01:45:33.115Z,22.52
2017-01-30T01:46:32.228Z,22.49
2017-01-30T01:47:33.021Z,22.51
2017-01-30T01:48:33.078Z,22.49
2017-01-30T01:49:33.036Z,22.46
2017-01-30T01:50:33.093Z,22.46
2017-01-30T01:51:33.045Z,22.46
2017-01-30T01:52:33.057Z,22.51
2017-01-30T01:53:32.721Z,22.51
2017-01-30T01:54:33.061Z,22.43
2017-01-30T01:55:33.119Z,22.39
2017-01-30T01:56:33.075Z,22.39
2017-01-30T01:57:32.686Z,22.47
2017-01-30T01:58:33.088Z,22.51
2017-01-30T01:59:32.697Z,22.33
2017-01-30T02:00:33.154Z,22.51
2017-01-30T02:01:32.813Z,22.45
2017-01-30T02:02:33.464Z,22.46
2017-01-30T02:03:33.119Z,22.47
2017-01-30T02:04:33.126Z,22.47
2017-01-30T02:05:33.130Z,22.47
2017-01-30T02:06:33.137Z,22.43
2017-01-30T02:07:33.196Z,22.51
2017-01-30T02:08:33.195Z,22.37
2017-01-30T02:09:33.215Z,22.43
2017-01-30T02:10:33.159Z,22.55
2017-01-30T02:11:33.163Z,22.47
2017-01-30T02:12:33.170Z,22.35
2017-01-30T02:13:33.225Z,22.39
2017-01-30T02:14:33.180Z,22.37
2017-01-30T02:15:33.184Z,22.42
2017-01-30T02:16:33.258Z,22.51
2017-01-30T02:17:33.201Z,22.54
2017-01-30T02:18:33.213Z,22.45
2017-01-30T02:19:33.208Z,22.45
2017-01-30T02:20:33.267Z,22.49
2017-01-30T02:21:33.293Z,22.51
2017-01-30T02:22:33.228Z,22.52
2017-01-30T02:23:33.286Z,22.49
2017-01-30T02:24:33.288Z,22.46
2017-01-30T02:25:33.352Z,22.46
2017-01-30T02:26:32.901Z,22.45
2017-01-30T02:27:33.309Z,22.47
2017-01-30T02:28:33.265Z,22.45
2017-01-30T02:29:33.319Z,22.49
2017-01-30T02:30:33.277Z,22.49
2017-01-30T02:31:33.332Z,22.52
2017-01-30T02:32:33.339Z,22.52
2017-01-30T02:33:33.341Z,22.55
2017-01-30T02:34:33.351Z,22.45
2017-01-30T02:35:32.911Z,22.47
2017-01-30T02:36:32.963Z,22.52
2017-01-30T02:37:33.314Z,22.51
2017-01-30T02:38:32.927Z,22.47
2017-01-30T02:39:32.935Z,22.47
2017-01-30T02:40:33.382Z,22.45
2017-01-30T02:41:33.437Z,22.47
2017-01-30T02:42:33.396Z,22.42
2017-01-30T02:43:33.040Z,22.54
2017-01-30T02:44:33.407Z,22.51
2017-01-30T02:45:33.418Z,22.52
2017-01-30T02:46:33.024Z,22.47
2017-01-30T02:47:33.373Z,22.52
2017-01-30T02:48:33.487Z,22.49
2017-01-30T02:49:33.389Z,22.49
2017-01-30T02:50:33.000Z,22.46
2017-01-30T02:51:33.447Z,22.52
2017-01-30T02:52:33.451Z,22.54
2017-01-30T02:53:33.412Z,22.47
2017-01-30T02:54:33.466Z,22.49
2017-01-30T02:55:33.471Z,22.47
2017-01-30T02:56:33.429Z,22.47
2017-01-30T02:57:33.046Z,22.52
2017-01-30T02:58:33.440Z,22.49
2017-01-30T02:59:33.440Z,22.46
2017-01-30T03:00:33.454Z,22.47
2017-01-30T03:01:33.113Z,22.45
2017-01-30T03:02:33.468Z,22.52
2017-01-30T03:03:33.481Z,22.47
2017-01-30T03:04:33.475Z,22.51
2017-01-30T03:05:33.085Z,22.37
2017-01-30T03:06:33.535Z,22.47
2017-01-30T03:07:33.494Z,22.47
2017-01-30T03:08:33.101Z,22.52
2017-01-30T03:09:33.501Z,22.47
2017-01-30T03:10:33.559Z,22.46
2017-01-30T03:11:33.170Z,22.45
2017-01-30T03:12:33.518Z,22.52
2017-01-30T03:13:33.527Z,22.28
2017-01-30T03:14:33.684Z,22.43
2017-01-30T03:15:33.638Z,22.4
2017-01-30T03:16:33.595Z,22.35
2017-01-30T03:17:33.598Z,22.47
2017-01-30T03:18:33.553Z,22.4
2017-01-30T03:19:33.222Z,22.52
2017-01-30T03:20:33.666Z,22.55
2017-01-30T03:21:33.626Z,22.49
2017-01-30T03:22:33.582Z,22.46
2017-01-30T03:23:33.687Z,22.55
2017-01-30T03:24:33.600Z,22.47
2017-01-30T03:25:33.634Z,22.37
2017-01-30T03:26:33.700Z,22.49
2017-01-30T03:27:33.713Z,22.46
2017-01-30T03:28:33.667Z,22.52
2017-01-30T03:29:33.671Z,22.42
2017-01-30T03:30:33.674Z,22.49
2017-01-30T03:31:32.869Z,22.46
2017-01-30T03:32:33.692Z,22.46
2017-01-30T03:33:33.694Z,22.4
2017-01-30T03:34:33.750Z,22.4
2017-01-30T03:35:33.311Z,22.4
2017-01-30T03:36:33.716Z,22.45
2017-01-30T03:37:33.669Z,22.45
2017-01-30T03:38:33.576Z,22.47
2017-01-30T03:39:33.283Z,22.47
2017-01-30T03:40:33.686Z,22.46
2017-01-30T03:41:33.425Z,22.4
2017-01-30T03:42:33.297Z,22.43
2017-01-30T03:43:33.760Z,22.37
2017-01-30T03:44:33.758Z,22.39
2017-01-30T03:45:33.759Z,22.42
2017-01-30T03:46:33.379Z,22.4
2017-01-30T03:47:33.382Z,22.46
2017-01-30T03:48:33.790Z,22.42
2017-01-30T03:49:33.786Z,22.46
2017-01-30T03:50:33.741Z,22.43
2017-01-30T03:51:33.403Z,22.39
2017-01-30T03:52:33.410Z,22.4
2017-01-30T03:53:33.910Z,22.37
2017-01-30T03:54:33.814Z,22.51
2017-01-30T03:55:33.771Z,22.47
2017-01-30T03:56:33.437Z,22.42
2017-01-30T03:57:33.834Z,22.45
2017-01-30T03:58:33.792Z,22.42
2017-01-30T03:59:33.396Z,22.49
2017-01-30T04:00:33.406Z,22.4
2017-01-30T04:01:33.407Z,22.46
2017-01-30T04:02:34.109Z,22.39
2017-01-30T04:03:33.916Z,22.4
2017-01-30T04:04:33.885Z,22.45
2017-01-30T04:05:33.434Z,22.4
2017-01-30T04:06:33.438Z,22.42
2017-01-30T04:07:33.841Z,22.46
2017-01-30T04:08:33.995Z,22.36
2017-01-30T04:09:33.953Z,22.49
2017-01-30T04:10:33.858Z,22.45
2017-01-30T04:11:33.916Z,22.43
2017-01-30T04:12:33.916Z,22.51
2017-01-30T04:13:33.926Z,22.47
2017-01-30T04:14:33.485Z,22.52
2017-01-30T04:15:33.938Z,22.47
2017-01-30T04:16:33.941Z,22.45
2017-01-30T04:17:33.897Z,22.4
2017-01-30T04:18:33.508Z,22.49
2017-01-30T04:19:34.057Z,22.49
2017-01-30T04:20:33.962Z,22.49
2017-01-30T04:21:33.924Z,22.47
2017-01-30T04:22:33.926Z,22.54
2017-01-30T04:23:33.986Z,22.45
2017-01-30T04:24:33.990Z,22.46
2017-01-30T04:25:33.653Z,22.51
2017-01-30T04:26:33.954Z,22.49
2017-01-30T04:27:33.959Z,22.47
2017-01-30T04:28:33.966Z,22.46
2017-01-30T04:29:33.993Z,22.42
2017-01-30T04:30:34.076Z,22.42
2017-01-30T04:31:33.581Z,22.4
2017-01-30T04:32:34.038Z,22.51
2017-01-30T04:33:34.092Z,22.45
2017-01-30T04:34:33.996Z,22.43
2017-01-30T04:35:34.153Z,22.43
2017-01-30T04:36:34.309Z,22.36
2017-01-30T04:37:34.020Z,22.47
2017-01-30T04:38:34.151Z,22.45
2017-01-30T04:39:33.732Z,22.52
2017-01-30T04:40:34.120Z,22.4
2017-01-30T04:41:34.037Z,22.42
2017-01-30T04:42:34.042Z,22.42
2017-01-30T04:43:33.741Z,22.39
2017-01-30T04:44:34.159Z,22.4
2017-01-30T04:45:34.066Z,22.51
2017-01-30T04:46:34.117Z,22.47
2017-01-30T04:47:34.170Z,22.47
2017-01-30T04:48:33.682Z,22.36
2017-01-30T04:49:33.687Z,22.35
2017-01-30T04:50:34.141Z,22.39
2017-01-30T04:51:34.096Z,22.33
2017-01-30T04:52:34.099Z,22.27
2017-01-30T04:53:34.164Z,22.47
2017-01-30T04:54:33.817Z,22.39
2017-01-30T04:55:34.117Z,22.46
2017-01-30T04:56:34.124Z,22.45
2017-01-30T04:57:34.130Z,22.39
2017-01-30T04:58:33.788Z,22.51
2017-01-30T04:59:34.145Z,22.46
2017-01-30T05:00:34.298Z,22.46
2017-01-30T05:01:34.257Z,22.47
2017-01-30T05:02:34.212Z,22.37
2017-01-30T05:03:34.217Z,22.4
2017-01-30T05:04:34.172Z,22.46
2017-01-30T05:05:34.228Z,22.4
2017-01-30T05:06:34.193Z,22.47
2017-01-30T05:07:34.341Z,22.54
2017-01-30T05:08:34.196Z,22.46
2017-01-30T05:09:34.249Z,22.39
2017-01-30T05:10:33.811Z,22.49
2017-01-30T05:11:34.211Z,22.47
2017-01-30T05:12:34.267Z,22.47
2017-01-30T05:13:34.281Z,22.43
2017-01-30T05:14:34.260Z,22.42
2017-01-30T05:15:34.315Z,22.46
2017-01-30T05:16:34.296Z,22.36
2017-01-30T05:17:34.250Z,22.43
2017-01-30T05:18:34.300Z,22.35
2017-01-30T05:19:34.312Z,22.4
2017-01-30T05:20:34.264Z,22.49
2017-01-30T05:21:34.369Z,22.45
2017-01-30T05:22:34.325Z,22.52
2017-01-30T05:23:34.383Z,22.51
2017-01-30T05:24:34.338Z,22.46
2017-01-30T05:25:33.898Z,22.47
2017-01-30T05:26:34.350Z,22.47
2017-01-30T05:27:33.613Z,22.47
2017-01-30T05:28:34.359Z,22.43
2017-01-30T05:29:34.316Z,22.54
2017-01-30T05:30:34.371Z,22.57
2017-01-30T05:31:34.382Z,22.46
2017-01-30T05:32:34.333Z,22.49
2017-01-30T05:33:34.391Z,22.47
2017-01-30T05:34:34.393Z,22.54
2017-01-30T05:35:34.408Z,22.54
2017-01-30T05:36:34.387Z,22.6
2017-01-30T05:37:34.012Z,22.47
2017-01-30T05:38:34.372Z,22.52
2017-01-30T05:39:34.375Z,22.39
2017-01-30T05:40:34.379Z,22.4
2017-01-30T05:41:34.438Z,22.52
2017-01-30T05:42:34.441Z,22.45
2017-01-30T05:43:34.448Z,22.55
2017-01-30T05:44:34.014Z,22.49
2017-01-30T05:45:34.012Z,22.43
2017-01-30T05:46:34.465Z,22.55
2017-01-30T05:47:34.028Z,22.46
2017-01-30T05:48:34.424Z,22.47
2017-01-30T05:49:34.460Z,22.49
2017-01-30T05:50:34.455Z,22.52
2017-01-30T05:51:34.530Z,22.46
2017-01-30T05:52:34.110Z,22.54
2017-01-30T05:53:34.109Z,22.49
2017-01-30T05:54:34.162Z,22.58
2017-01-30T05:55:34.167Z,22.55
2017-01-30T05:56:34.523Z,22.51
2017-01-30T05:57:34.515Z,22.47
2017-01-30T05:58:34.534Z,22.51
2017-01-30T05:59:34.537Z,22.47
2017-01-30T06:00:34.844Z,22.46
2017-01-30T06:01:34.552Z,22.39
2017-01-30T06:02:33.716Z,22.54
2017-01-30T06:03:34.169Z,22.37
2017-01-30T06:04:34.570Z,22.42
2017-01-30T06:05:34.522Z,22.45
2017-01-30T06:06:34.187Z,22.42
2017-01-30T06:07:34.138Z,22.42
2017-01-30T06:08:34.639Z,22.39
2017-01-30T06:09:34.199Z,22.4
2017-01-30T06:10:34.555Z,22.4
2017-01-30T06:11:34.606Z,22.46
2017-01-30T06:12:34.217Z,22.4
2017-01-30T06:13:34.617Z,22.42
2017-01-30T06:14:34.622Z,22.47
2017-01-30T06:15:34.633Z,22.46
2017-01-30T06:16:34.643Z,22.49
2017-01-30T06:17:34.652Z,22.51
2017-01-30T06:18:34.599Z,22.51
2017-01-30T06:19:34.653Z,22.46
2017-01-30T06:20:34.663Z,22.46
2017-01-30T06:21:34.669Z,22.46
2017-01-30T06:22:34.669Z,22.49
2017-01-30T06:23:34.692Z,22.39
2017-01-30T06:24:34.632Z,22.36
2017-01-30T06:25:34.296Z,22.4
2017-01-30T06:26:34.695Z,22.51
2017-01-30T06:27:34.699Z,22.46
2017-01-30T06:28:34.705Z,22.46
2017-01-30T06:29:34.663Z,22.47
2017-01-30T06:30:34.277Z,22.46
2017-01-30T06:31:34.723Z,22.45
2017-01-30T06:32:34.384Z,22.43
2017-01-30T06:33:34.688Z,22.42
2017-01-30T06:34:34.741Z,22.4
2017-01-30T06:35:35.249Z,22.45
2017-01-30T06:36:34.760Z,22.45
2017-01-30T06:37:34.758Z,22.42
2017-01-30T06:38:34.716Z,22.43
2017-01-30T06:39:34.423Z,22.51
2017-01-30T06:40:34.809Z,22.45
2017-01-30T06:41:34.785Z,22.46
2017-01-30T06:42:34.740Z,22.54
2017-01-30T06:43:34.746Z,22.39
2017-01-30T06:44:34.006Z,22.42
2017-01-30T06:45:34.359Z,22.55
2017-01-30T06:46:34.816Z,22.46
2017-01-30T06:47:34.770Z,22.54
2017-01-30T06:48:34.772Z,22.52
2017-01-30T06:49:34.824Z,22.51
2017-01-30T06:50:34.789Z,22.55
2017-01-30T06:51:34.892Z,22.4
2017-01-30T06:52:34.791Z,22.37
2017-01-30T06:53:34.803Z,22.4
2017-01-30T06:54:34.415Z,22.45
2017-01-30T06:55:34.421Z,22.47
2017-01-30T06:56:34.820Z,22.46
2017-01-30T06:57:34.876Z,22.51
2017-01-30T06:58:34.933Z,22.52
2017-01-30T06:59:34.441Z,22.46
2017-01-30T07:00:34.842Z,22.49
2017-01-30T07:01:34.503Z,22.46
2017-01-30T07:02:34.855Z,22.49
2017-01-30T07:03:34.884Z,22.46
2017-01-30T07:04:34.521Z,22.57
2017-01-30T07:05:34.869Z,22.51
2017-01-30T07:06:34.877Z,22.55
2017-01-30T07:07:34.489Z,22.52
2017-01-30T07:08:34.944Z,22.52
2017-01-30T07:09:34.893Z,22.46
2017-01-30T07:10:34.899Z,22.47
2017-01-30T07:11:34.905Z,22.47
2017-01-30T07:12:34.917Z,22.39
2017-01-30T07:13:34.227Z,22.45
2017-01-30T07:14:34.627Z,22.45
2017-01-30T07:15:34.932Z,22.39
2017-01-30T07:16:34.936Z,22.51
2017-01-30T07:17:34.595Z,22.4
2017-01-30T07:18:34.997Z,22.45
2017-01-30T07:19:34.557Z,22.47
2017-01-30T07:20:35.007Z,22.47
2017-01-30T07:21:35.017Z,22.47
2017-01-30T07:22:34.972Z,22.47
2017-01-30T07:23:34.985Z,22.45
2017-01-30T07:24:35.085Z,22.43
2017-01-30T07:25:34.988Z,22.47
2017-01-30T07:26:34.994Z,22.52
2017-01-30T07:27:34.999Z,22.51
2017-01-30T07:28:35.016Z,22.57
2017-01-30T07:29:35.061Z,22.72
2017-01-30T07:30:35.068Z,22.86
2017-01-30T07:31:35.076Z,23.04
2017-01-30T07:32:35.029Z,23.05
2017-01-30T07:33:35.083Z,23.1
2017-01-30T07:34:35.090Z,23.28
2017-01-30T07:35:35.349Z,23.43
2017-01-30T07:36:35.104Z,23.6
2017-01-30T07:37:34.662Z,23.66
2017-01-30T07:38:35.113Z,23.75
2017-01-30T07:39:35.119Z,23.73
2017-01-30T07:40:35.129Z,23.79
2017-01-30T07:41:35.182Z,23.88
2017-01-30T07:42:34.692Z,23.9
2017-01-30T07:43:35.093Z,24.05
2017-01-30T07:44:34.703Z,24.08
2017-01-30T07:45:35.154Z,24.16
2017-01-30T07:46:35.112Z,24.21
2017-01-30T07:47:35.114Z,24.24
2017-01-30T07:48:35.126Z,24.28
2017-01-30T07:49:34.788Z,24.34
2017-01-30T07:50:34.760Z,24.35
2017-01-30T07:51:35.192Z,24.37
2017-01-30T07:52:35.156Z,24.35
2017-01-30T07:53:35.161Z,24.4
2017-01-30T07:54:35.210Z,24.5
2017-01-30T07:55:35.165Z,24.55
2017-01-30T07:56:35.183Z,24.55
2017-01-30T07:57:35.183Z,24.61
2017-01-30T07:58:34.793Z,24.52
2017-01-30T07:59:34.794Z,24.62
2017-01-30T08:00:35.199Z,24.71
2017-01-30T08:01:35.360Z,24.64
2017-01-30T08:02:35.207Z,24.76
2017-01-30T08:03:35.271Z,24.77
2017-01-30T08:04:35.273Z,24.69
2017-01-30T08:05:35.381Z,24.78
2017-01-30T08:06:35.242Z,24.78
2017-01-30T08:07:35.244Z,24.78
2017-01-30T08:08:35.245Z,24.76
2017-01-30T08:09:35.305Z,24.71
2017-01-30T08:10:34.867Z,24.76
2017-01-30T08:11:35.269Z,24.68
2017-01-30T08:12:35.278Z,24.71
2017-01-30T08:13:35.335Z,24.71
2017-01-30T08:14:35.348Z,24.81
2017-01-30T08:15:35.325Z,24.69
2017-01-30T08:16:35.348Z,24.64
2017-01-30T08:17:34.910Z,24.64
2017-01-30T08:18:34.916Z,24.65
2017-01-30T08:19:35.322Z,24.62
2017-01-30T08:20:35.327Z,24.64
2017-01-30T08:21:35.436Z,24.64
2017-01-30T08:22:35.343Z,24.64
2017-01-30T08:23:35.397Z,24.47
2017-01-30T08:24:35.356Z,24.52
2017-01-30T08:25:35.409Z,24.57
2017-01-30T08:26:35.415Z,24.57
2017-01-30T08:27:34.981Z,24.58
2017-01-30T08:28:35.430Z,24.65
2017-01-30T08:29:34.993Z,24.57
2017-01-30T08:30:35.048Z,24.6
2017-01-30T08:31:35.399Z,24.64
2017-01-30T08:32:35.435Z,24.64
2017-01-30T08:33:34.668Z,24.77
2017-01-30T08:34:35.427Z,24.65
2017-01-30T08:35:35.448Z,24.68
2017-01-30T08:36:35.138Z,24.68
2017-01-30T08:37:34.645Z,24.6
2017-01-30T08:38:35.448Z,24.68
2017-01-30T08:39:35.503Z,24.61
2017-01-30T08:40:35.117Z,24.61
2017-01-30T08:41:35.517Z,24.81
2017-01-30T08:42:35.532Z,24.64
2017-01-30T08:43:35.476Z,24.68
2017-01-30T08:44:35.489Z,24.76
2017-01-30T08:45:35.592Z,24.69
2017-01-30T08:46:35.494Z,24.78
2017-01-30T08:47:35.552Z,24.68
2017-01-30T08:48:35.510Z,24.69
2017-01-30T08:49:35.525Z,24.81
2017-01-30T08:50:35.626Z,24.71
2017-01-30T08:51:35.585Z,24.67
2017-01-30T08:52:35.536Z,24.68
2017-01-30T08:53:35.543Z,24.68
2017-01-30T08:54:35.636Z,24.81
2017-01-30T08:55:35.563Z,24.84
2017-01-30T08:56:35.617Z,24.83
2017-01-30T08:57:35.182Z,24.88
2017-01-30T08:58:35.586Z,24.84
2017-01-30T08:59:35.635Z,24.9
2017-01-30T09:00:35.250Z,24.88
2017-01-30T09:01:35.208Z,24.91
2017-01-30T09:02:35.607Z,24.76
2017-01-30T09:03:35.612Z,24.71
2017-01-30T09:04:35.674Z,24.76
2017-01-30T09:05:35.675Z,24.81
2017-01-30T09:06:35.269Z,24.73
2017-01-30T09:07:35.642Z,24.65
2017-01-30T09:08:35.646Z,24.77
2017-01-30T09:09:35.655Z,24.77
2017-01-30T09:10:35.712Z,24.73
2017-01-30T09:11:35.328Z,24.77
2017-01-30T09:12:35.684Z,24.77
2017-01-30T09:13:35.440Z,24.8
2017-01-30T09:14:35.295Z,24.85
2017-01-30T09:15:35.748Z,24.93
2017-01-30T09:16:35.706Z,24.83
2017-01-30T09:17:35.712Z,24.83
2017-01-30T09:18:35.822Z,24.93
2017-01-30T09:19:35.727Z,24.83
2017-01-30T09:20:35.781Z,24.87
2017-01-30T09:21:35.394Z,24.81
2017-01-30T09:22:35.748Z,24.9
2017-01-30T09:23:35.366Z,24.83
2017-01-30T09:24:35.859Z,24.91
2017-01-30T09:25:35.866Z,24.88
2017-01-30T09:26:35.822Z,25.09
2017-01-30T09:27:35.784Z,24.99
2017-01-30T09:28:35.787Z,24.95
2017-01-30T09:29:35.457Z,24.85
2017-01-30T09:30:35.902Z,24.88
2017-01-30T09:31:35.810Z,24.8
2017-01-30T09:32:35.818Z,24.73
2017-01-30T09:33:35.851Z,24.77
2017-01-30T09:34:35.483Z,24.78
2017-01-30T09:35:35.841Z,24.78
2017-01-30T09:36:35.841Z,24.77
2017-01-30T09:37:35.959Z,24.71
2017-01-30T09:38:35.857Z,24.83
2017-01-30T09:39:35.861Z,24.73
2017-01-30T09:40:35.866Z,24.88
2017-01-30T09:41:35.533Z,24.88
2017-01-30T09:42:35.885Z,24.81
2017-01-30T09:43:35.496Z,24.83
2017-01-30T09:44:35.899Z,24.83
2017-01-30T09:45:35.956Z,24.83
2017-01-30T09:46:35.962Z,24.83
2017-01-30T09:47:35.537Z,24.83
2017-01-30T09:48:35.975Z,24.78
2017-01-30T09:49:35.933Z,24.85
2017-01-30T09:50:35.939Z,24.77
2017-01-30T09:51:35.943Z,24.83
2017-01-30T09:52:36.001Z,24.83
2017-01-30T09:53:35.977Z,24.73
2017-01-30T09:54:36.013Z,24.73
2017-01-30T09:55:35.973Z,24.73
2017-01-30T09:56:35.979Z,24.8
2017-01-30T09:57:35.992Z,24.78
2017-01-30T09:58:35.648Z,24.73
2017-01-30T09:59:35.654Z,24.67
2017-01-30T10:00:36.012Z,24.68
2017-01-30T10:01:36.016Z,24.68
2017-01-30T10:02:36.076Z,24.61
2017-01-30T10:03:36.079Z,24.52
2017-01-30T10:04:36.038Z,24.81
2017-01-30T10:05:35.655Z,24.68
2017-01-30T10:06:35.713Z,24.77
2017-01-30T10:07:36.058Z,24.71
2017-01-30T10:08:36.114Z,24.73
2017-01-30T10:09:35.731Z,24.77
2017-01-30T10:10:36.083Z,24.69
2017-01-30T10:11:36.120Z,24.58
2017-01-30T10:12:36.193Z,24.58
2017-01-30T10:13:35.807Z,24.55
2017-01-30T10:14:35.715Z,24.55
2017-01-30T10:15:35.723Z,24.64
2017-01-30T10:16:35.829Z,24.68
2017-01-30T10:17:36.189Z,24.64
2017-01-30T10:18:36.189Z,24.62
2017-01-30T10:19:36.192Z,24.68
2017-01-30T10:20:35.802Z,24.67
2017-01-30T10:21:36.150Z,24.67
2017-01-30T10:22:35.817Z,24.71
2017-01-30T10:23:36.167Z,24.68
2017-01-30T10:24:36.175Z,24.64
2017-01-30T10:25:36.178Z,24.76
2017-01-30T10:26:36.191Z,24.64
2017-01-30T10:27:35.854Z,24.67
2017-01-30T10:28:36.201Z,24.52
2017-01-30T10:29:36.210Z,24.57
2017-01-30T10:30:36.217Z,24.52
2017-01-30T10:31:36.220Z,24.53
2017-01-30T10:32:36.231Z,24.57
2017-01-30T10:33:36.336Z,24.57
2017-01-30T10:34:36.241Z,24.52
2017-01-30T10:35:36.303Z,24.49
2017-01-30T10:36:36.257Z,24.53
2017-01-30T10:37:35.925Z,24.49
2017-01-30T10:38:36.267Z,24.5
2017-01-30T10:39:36.323Z,24.5
2017-01-30T10:40:35.885Z,24.53
2017-01-30T10:41:36.389Z,24.58
2017-01-30T10:42:36.294Z,24.53
2017-01-30T10:43:37.298Z,24.58
2017-01-30T10:44:36.307Z,24.64
2017-01-30T10:45:36.316Z,24.53
2017-01-30T10:46:36.325Z,24.53
2017-01-30T10:47:36.331Z,24.67
2017-01-30T10:48:36.433Z,24.67
2017-01-30T10:49:36.392Z,24.77
2017-01-30T10:50:36.001Z,24.84
2017-01-30T10:51:35.565Z,24.81
2017-01-30T10:52:36.362Z,24.85
2017-01-30T10:53:36.367Z,24.91
2017-01-30T10:54:36.426Z,24.88
2017-01-30T10:55:35.592Z,25.02
2017-01-30T10:56:36.438Z,25
2017-01-30T10:57:36.001Z,24.96
2017-01-30T10:58:36.403Z,24.85
2017-01-30T10:59:36.015Z,24.71
2017-01-30T11:00:36.465Z,24.76
2017-01-30T11:01:37.422Z,24.73
2017-01-30T11:02:36.479Z,24.83
2017-01-30T11:03:36.041Z,24.98
2017-01-30T11:04:36.048Z,25.03
2017-01-30T11:05:36.458Z,24.85
2017-01-30T11:06:36.455Z,24.85
2017-01-30T11:07:36.565Z,24.88
2017-01-30T11:08:36.519Z,24.83
2017-01-30T11:09:36.477Z,24.85
2017-01-30T11:10:36.086Z,24.87
2017-01-30T11:11:36.590Z,24.87
2017-01-30T11:12:35.706Z,24.84
2017-01-30T11:13:36.549Z,24.95
2017-01-30T11:14:36.215Z,24.87
2017-01-30T11:15:36.623Z,24.76
2017-01-30T11:16:36.519Z,24.78
2017-01-30T11:17:36.532Z,24.9
2017-01-30T11:18:36.187Z,24.83
2017-01-30T11:19:36.599Z,24.9
2017-01-30T11:20:36.602Z,24.88
2017-01-30T11:21:36.664Z,24.88
2017-01-30T11:22:36.570Z,24.85
2017-01-30T11:23:36.574Z,24.8
2017-01-30T11:24:36.577Z,24.76
2017-01-30T11:25:36.192Z,24.77
2017-01-30T11:26:36.249Z,24.84
2017-01-30T11:27:36.612Z,24.87
2017-01-30T11:28:35.817Z,24.85
2017-01-30T11:29:36.645Z,24.73
2017-01-30T11:30:36.723Z,24.68
2017-01-30T11:31:36.290Z,24.69
2017-01-30T11:32:36.642Z,24.73
2017-01-30T11:33:36.642Z,24.83
2017-01-30T11:34:36.735Z,24.99
2017-01-30T11:35:36.754Z,24.96
2017-01-30T11:36:36.369Z,24.95
2017-01-30T11:37:36.672Z,24.83
2017-01-30T11:38:36.579Z,24.87
2017-01-30T11:39:36.686Z,24.84
2017-01-30T11:40:36.736Z,24.87
2017-01-30T11:41:36.303Z,24.91
2017-01-30T11:42:36.758Z,24.84
2017-01-30T11:43:51.192Z,24.91
2017-01-30T11:44:36.723Z,24.9
2017-01-30T11:45:36.730Z,24.84
2017-01-30T11:46:36.729Z,24.69
2017-01-30T11:47:36.741Z,24.77
2017-01-30T11:48:36.744Z,24.77
2017-01-30T11:49:37.607Z,24.73
2017-01-30T11:50:36.838Z,24.81
2017-01-30T11:51:36.342Z,24.84
2017-01-30T11:52:36.823Z,24.87
2017-01-30T11:53:36.782Z,24.88
2017-01-30T11:54:36.788Z,24.76
2017-01-30T11:55:36.395Z,24.81
2017-01-30T11:56:36.847Z,24.73
2017-01-30T11:57:36.807Z,24.8
2017-01-30T11:58:37.314Z,24.84
2017-01-30T11:59:36.824Z,24.84
2017-01-30T12:00:36.481Z,24.81
2017-01-30T12:01:36.835Z,24.69
2017-01-30T12:02:36.840Z,24.77
2017-01-30T12:03:36.851Z,24.76
2017-01-30T12:04:36.908Z,24.81
2017-01-30T12:05:36.960Z,24.8
2017-01-30T12:06:36.916Z,24.77
2017-01-30T12:07:36.924Z,24.71
2017-01-30T12:08:36.911Z,24.8
2017-01-30T12:09:36.888Z,24.78
2017-01-30T12:10:36.894Z,24.73
2017-01-30T12:11:36.557Z,24.77
2017-01-30T12:12:36.909Z,24.8
2017-01-30T12:13:36.919Z,24.85
2017-01-30T12:14:36.576Z,24.88
2017-01-30T12:15:36.981Z,24.73
2017-01-30T12:16:36.539Z,24.95
2017-01-30T12:17:36.995Z,25.08
2017-01-30T12:18:36.999Z,24.98
2017-01-30T12:19:37.056Z,24.84
2017-01-30T12:20:36.960Z,24.91
2017-01-30T12:21:37.070Z,24.96
2017-01-30T12:22:37.024Z,24.9
2017-01-30T12:23:36.987Z,24.85
2017-01-30T12:24:36.988Z,24.85
2017-01-30T12:25:37.049Z,24.77
2017-01-30T12:26:37.053Z,24.91
2017-01-30T12:27:37.017Z,24.84
2017-01-30T12:28:37.019Z,24.85
2017-01-30T12:29:36.235Z,24.84
2017-01-30T12:30:37.036Z,24.83
2017-01-30T12:31:37.088Z,24.88
2017-01-30T12:32:36.647Z,24.96
2017-01-30T12:33:36.658Z,24.84
2017-01-30T12:34:37.058Z,24.83
2017-01-30T12:35:37.063Z,24.76
2017-01-30T12:36:37.117Z,24.91
2017-01-30T12:37:37.126Z,24.71
2017-01-30T12:38:37.083Z,24.84
2017-01-30T12:39:37.348Z,24.85
2017-01-30T12:40:37.151Z,24.73
2017-01-30T12:41:37.158Z,24.77
2017-01-30T12:42:37.115Z,24.69
2017-01-30T12:43:37.210Z,24.85
2017-01-30T12:44:37.173Z,24.96
2017-01-30T12:45:37.186Z,24.83
2017-01-30T12:46:36.806Z,24.84
2017-01-30T12:47:36.354Z,24.83
2017-01-30T12:48:37.153Z,24.84
2017-01-30T12:49:37.162Z,24.85
2017-01-30T12:50:37.223Z,24.88
2017-01-30T12:51:36.384Z,24.88
2017-01-30T12:52:36.839Z,24.9
2017-01-30T12:53:36.795Z,24.9
2017-01-30T12:54:37.294Z,24.83